Time;durP1;ratioP1;P1;durP2;ratioP2;P2;SDS_P1;SDS_P2;PMS_P1;PMS_P2;Temp;Humidity;BMP_temperature;BMP_pressure;BME280_temperature;BME280_humidity;BME280_pressure;Samples;Min_cycle;Max_cycle;Signal;HPM_P1;HPM_P2
2023/09/25 00:02:28;;;;;;;0.10;0.10;;;;;;;9.97;100.00;97288.06;4933951;28;20050;-86
2023/09/25 00:05:16;;;;;;;0.10;0.10;;;;;;;9.92;100.00;97282.56;4932660;28;20146;-87
2023/09/25 00:08:03;;;;;;;0.10;0.10;;;;;;;9.91;100.00;97288.94;4934228;28;20321;-87
2023/09/25 00:10:49;;;;;;;0.10;0.10;;;;;;;9.89;100.00;97283.81;4933002;28;20738;-87
2023/09/25 00:13:36;;;;;;;0.10;0.10;;;;;;;9.87;100.00;97285.06;4933418;28;20073;-87
2023/09/25 00:16:21;;;;;;;0.10;0.10;;;;;;;9.81;100.00;97288.66;4933432;28;20078;-89
2023/09/25 00:19:07;;;;;;;0.10;0.10;;;;;;;9.79;100.00;97283.50;4933135;28;20123;-87
2023/09/25 00:21:53;;;;;;;0.10;0.10;;;;;;;9.74;100.00;97278.84;4933826;28;20126;-87
2023/09/25 00:24:40;;;;;;;0.10;0.10;;;;;;;9.74;100.00;97278.84;4931754;28;20426;-85
2023/09/25 00:27:26;;;;;;;0.10;0.10;;;;;;;9.65;100.00;97279.34;4933981;28;20387;-86
2023/09/25 00:30:13;;;;;;;0.10;0.10;;;;;;;9.71;100.00;97289.97;4937931;28;20047;-85
2023/09/25 00:32:59;;;;;;;0.10;0.10;;;;;;;9.69;100.00;97284.03;4934631;28;20062;-85
2023/09/25 00:35:46;;;;;;;0.10;0.10;;;;;;;9.70;100.00;97284.84;4936546;28;20050;-85
2023/09/25 00:38:32;;;;;;;0.10;0.10;;;;;;;9.66;100.00;97284.50;4937021;28;20083;-88
2023/09/25 00:41:17;;;;;;;0.10;0.10;;;;;;;9.60;100.00;97280.03;4940570;28;20262;-86
2023/09/25 00:44:03;;;;;;;0.10;0.10;;;;;;;9.56;100.00;97280.69;4935872;28;20035;-87
2023/09/25 00:46:50;;;;;;;0.10;0.10;;;;;;;9.54;100.00;97290.78;4937856;28;20047;-86
2023/09/25 00:49:36;;;;;;;0.10;0.10;;;;;;;9.51;100.00;97286.72;4936756;28;20533;-88
2023/09/25 00:52:22;;;;;;;0.10;0.10;;;;;;;9.48;100.00;97285.28;4937889;28;20510;-87
2023/09/25 00:55:08;;;;;;;0.10;0.10;;;;;;;9.49;100.00;97278.91;4937125;28;20290;-86
2023/09/25 00:57:55;;;;;;;0.10;0.10;;;;;;;9.48;100.00;97277.25;4936187;28;20446;-87
2023/09/25 01:00:42;;;;;;;0.10;0.10;;;;;;;9.53;100.00;97279.28;4937677;28;20502;-86
2023/09/25 01:03:30;;;;;;;0.00;0.00;;;;;;;9.51;100.00;97276.03;4921779;28;20553;-85
2023/09/25 01:06:17;;;;;;;0.10;0.10;;;;;;;9.51;100.00;97264.53;4937392;28;20051;-86
2023/09/25 01:09:04;;;;;;;0.00;0.00;;;;;;;9.38;100.00;97260.94;4921220;28;20166;-88
2023/09/25 01:11:50;;;;;;;0.10;0.10;;;;;;;9.43;100.00;97269.13;4935122;28;20051;-87
2023/09/25 01:14:36;;;;;;;0.10;0.10;;;;;;;9.44;100.00;97261.91;4936460;28;20066;-87
2023/09/25 01:17:22;;;;;;;0.10;0.10;;;;;;;9.41;100.00;97260.47;4923150;28;20043;-86
2023/09/25 01:20:12;;;;;;;0.10;0.10;;;;;;;9.39;100.00;97261.75;4934952;28;20070;-87
2023/09/25 01:22:58;;;;;;;0.10;0.10;;;;;;;9.39;100.00;97256.41;4935028;28;20467;-87
2023/09/25 01:25:44;;;;;;;0.10;0.10;;;;;;;9.43;100.00;97252.28;4937231;28;20050;-87
2023/09/25 01:28:30;;;;;;;0.10;0.10;;;;;;;9.43;100.00;97252.28;4923534;28;20877;-87
2023/09/25 01:31:16;;;;;;;0.10;0.10;;;;;;;9.46;100.00;97251.81;4935327;28;20062;-85
2023/09/25 01:34:03;;;;;;;0.10;0.10;;;;;;;9.40;100.00;97250.03;4934639;28;20234;-85
2023/09/25 01:36:49;;;;;;;0.10;0.10;;;;;;;9.40;100.00;97242.81;4936137;28;20120;-85
2023/09/25 01:39:35;;;;;;;0.10;0.10;;;;;;;9.43;100.00;97250.41;4923314;28;20047;-86
2023/09/25 01:42:21;;;;;;;0.10;0.10;;;;;;;9.44;100.00;97249.38;4922564;28;20340;-86
2023/09/25 01:45:11;;;;;;;0.10;0.10;;;;;;;9.46;100.00;97252.63;4922989;28;20039;-87
2023/09/25 01:47:57;;;;;;;0.10;0.10;;;;;;;9.45;100.00;97243.00;4934914;28;20524;-84
2023/09/25 01:50:43;;;;;;;0.10;0.10;;;;;;;9.45;100.00;97247.50;4936838;28;20050;-86
2023/09/25 01:53:29;;;;;;;0.10;0.10;;;;;;;9.44;100.00;97237.88;4935943;28;20758;-85
2023/09/25 01:56:15;;;;;;;0.10;0.10;;;;;;;9.49;100.00;97246.00;4936328;28;20047;-86
2023/09/25 01:59:00;;;;;;;0.10;0.10;;;;;;;9.45;100.00;97243.00;4920456;28;20051;-88
2023/09/25 02:01:46;;;;;;;0.10;0.10;;;;;;;9.46;100.00;97243.81;4923465;28;20073;-87
2023/09/25 02:04:33;;;;;;;0.10;0.10;;;;;;;9.44;100.00;97245.88;4935760;28;20141;-86
2023/09/25 02:07:18;;;;;;;0.03;0.03;;;;;;;9.43;100.00;97241.59;4933200;28;20364;-86
2023/09/25 02:10:06;;;;;;;0.10;0.10;;;;;;;9.43;100.00;97242.41;4920309;29;20051;-86
2023/09/25 02:12:51;;;;;;;0.10;0.10;;;;;;;9.41;100.00;97239.13;4935873;28;20346;-86
2023/09/25 02:15:37;;;;;;;0.10;0.10;;;;;;;9.41;100.00;97232.97;4922219;28;20090;-88
2023/09/25 02:18:23;;;;;;;0.10;0.10;;;;;;;9.36;100.00;97230.16;4934622;28;20462;-86
2023/09/25 02:21:10;;;;;;;0.10;0.10;;;;;;;9.39;100.00;97232.38;4934546;28;20534;-88
2023/09/25 02:23:56;;;;;;;0.10;0.10;;;;;;;9.39;100.00;97229.69;4934061;28;20671;-86
2023/09/25 02:26:42;;;;;;;0.10;0.10;;;;;;;9.39;100.00;97232.38;4936335;28;20155;-85
2023/09/25 02:29:28;;;;;;;0.10;0.10;;;;;;;9.37;100.00;97226.44;4934017;28;20118;-87
2023/09/25 02:32:13;;;;;;;0.10;0.10;;;;;;;9.38;100.00;97230.75;4936144;28;20477;-86
2023/09/25 02:34:59;;;;;;;0.10;0.10;;;;;;;9.37;100.00;97229.94;4933772;28;20050;-87
2023/09/25 02:37:45;;;;;;;0.10;0.10;;;;;;;9.34;100.00;97230.38;4934435;28;20124;-86
2023/09/25 02:40:32;;;;;;;0.10;0.10;;;;;;;9.33;100.00;97223.38;4936545;28;20047;-86
2023/09/25 02:43:17;;;;;;;0.10;0.10;;;;;;;9.32;100.00;97223.59;4932848;28;20263;-86
2023/09/25 02:46:05;;;;;;;0.10;0.10;;;;;;;9.34;100.00;97221.53;4936907;28;20070;-85
2023/09/25 02:48:51;;;;;;;0.10;0.10;;;;;;;9.30;100.00;97217.69;4934824;28;20063;-86
2023/09/25 02:51:37;;;;;;;0.10;0.10;;;;;;;9.26;100.00;97222.66;4921668;28;20138;-86
2023/09/25 02:54:23;;;;;;;0.10;0.10;;;;;;;9.24;100.00;97219.38;4933178;28;20047;-85
2023/09/25 02:57:09;;;;;;;0.00;0.00;;;;;;;9.23;100.00;97232.94;4921971;28;20050;-86
2023/09/25 02:59:54;;;;;;;0.10;0.10;;;;;;;9.20;100.00;97236.88;4921801;28;20043;-86
2023/09/25 03:02:42;;;;;;;0.10;0.10;;;;;;;9.17;100.00;97237.31;4934186;28;20431;-85
2023/09/25 03:05:28;;;;;;;0.10;0.10;;;;;;;9.11;100.00;97239.03;4935930;28;20395;-85
2023/09/25 03:08:14;;;;;;;0.10;0.10;;;;;;;9.06;100.00;97230.84;4919391;28;20125;-85
2023/09/25 03:11:00;;;;;;;0.10;0.10;;;;;;;9.05;100.00;97242.56;4936163;28;20514;-86
2023/09/25 03:13:46;;;;;;;0.10;0.10;;;;;;;9.01;100.00;97238.69;4934962;28;20047;-85
2023/09/25 03:16:31;;;;;;;0.10;0.10;;;;;;;9.03;100.00;97235.81;4934977;28;20050;-85
2023/09/25 03:19:17;;;;;;;0.10;0.10;;;;;;;8.95;100.00;97220.91;4931472;28;20059;-86
2023/09/25 03:22:03;;;;;;;0.10;0.10;;;;;;;8.96;100.00;97230.53;4933695;28;20075;-86
2023/09/25 03:24:49;;;;;;;0.10;0.10;;;;;;;8.97;100.00;97234.03;4934214;28;20039;-85
2023/09/25 03:27:35;;;;;;;0.10;0.10;;;;;;;8.93;100.00;97237.13;4920407;28;20086;-86
2023/09/25 03:30:22;;;;;;;0.10;0.10;;;;;;;8.90;100.00;97242.91;4920769;28;20138;-85
2023/09/25 03:33:09;;;;;;;0.10;0.10;;;;;;;8.89;100.00;97237.78;4934046;28;20043;-86
2023/09/25 03:35:55;;;;;;;0.10;0.10;;;;;;;8.83;100.00;97236.81;4934010;28;20069;-86
2023/09/25 03:38:41;;;;;;;0.10;0.10;;;;;;;8.78;100.00;97233.16;4936443;28;20049;-85
2023/09/25 03:41:27;;;;;;;0.10;0.10;;;;;;;8.80;100.00;97228.44;4935014;28;20047;-86
2023/09/25 03:44:13;;;;;;;0.10;0.10;;;;;;;8.78;100.00;97225.13;4934188;28;20039;-85
2023/09/25 03:47:00;;;;;;;0.10;0.10;;;;;;;8.78;100.00;97227.81;4934200;28;20046;-85
2023/09/25 03:49:46;;;;;;;0.10;0.10;;;;;;;8.72;100.00;97229.53;4935123;28;20054;-86
2023/09/25 03:52:31;;;;;;;0.00;0.00;;;;;;;8.65;100.00;97229.56;4932830;28;20054;-85
2023/09/25 03:55:18;;;;;;;0.10;0.10;;;;;;;8.67;100.00;97228.53;4921062;28;20611;-85
2023/09/25 03:58:03;;;;;;;0.10;0.10;;;;;;;8.67;100.00;97241.88;4919356;28;20567;-85
2023/09/25 04:00:52;;;;;;;0.10;0.10;;;;;;;8.61;100.00;97239.03;4935526;28;20175;-85
2023/09/25 04:03:38;;;;;;;0.00;0.00;;;;;;;8.56;100.00;97233.53;4939839;28;20059;-86
2023/09/25 04:06:23;;;;;;;0.10;0.10;;;;;;;8.57;100.00;97231.69;4945382;28;20043;-85
2023/09/25 04:09:10;;;;;;;0.10;0.10;;;;;;;8.47;100.00;97232.16;4942188;28;20035;-85
2023/09/25 04:11:57;;;;;;;0.10;0.10;;;;;;;8.44;100.00;97234.44;4941975;28;20040;-86
2023/09/25 04:14:43;;;;;;;0.00;0.00;;;;;;;8.47;100.00;97234.00;4945638;28;20075;-86
2023/09/25 04:17:29;;;;;;;0.10;0.10;;;;;;;8.38;100.00;97228.13;4945880;28;20065;-86
2023/09/25 04:20:17;;;;;;;0.05;0.05;;;;;;;8.37;100.00;97240.63;4944909;28;20035;-86
2023/09/25 04:23:03;;;;;;;0.10;0.10;;;;;;;8.35;100.00;97240.03;4940043;28;20159;-85
2023/09/25 04:25:52;;;;;;;0.10;0.10;;;;;;;8.33;100.00;97235.94;4941170;28;20128;-85
2023/09/25 04:28:40;;;;;;;0.10;0.10;;;;;;;8.29;100.00;97234.72;4942758;28;20062;-86
2023/09/25 04:31:28;;;;;;;0.10;0.10;;;;;;;8.28;100.00;97239.22;4940644;28;20043;-85
2023/09/25 04:34:14;;;;;;;0.10;0.10;;;;;;;8.23;100.00;97241.72;4942395;28;20034;-87
2023/09/25 04:36:59;;;;;;;0.10;0.10;;;;;;;8.24;100.00;97240.69;4943526;28;20085;-87
2023/09/25 04:39:45;;;;;;;0.10;0.10;;;;;;;8.23;100.00;97251.56;4944003;28;20509;-85
2023/09/25 04:42:31;;;;;;;0.10;0.10;;;;;;;8.21;100.00;97254.44;4941868;28;20047;-85
2023/09/25 04:45:18;;;;;;;0.10;0.10;;;;;;;8.19;100.00;97264.50;4945605;28;20040;-85
2023/09/25 04:48:04;;;;;;;0.10;0.10;;;;;;;8.14;100.00;97251.00;4943508;28;20122;-85
2023/09/25 04:50:53;;;;;;;0.10;0.10;;;;;;;8.12;100.00;97257.59;4942194;28;20047;-85
2023/09/25 04:53:39;;;;;;;0.10;0.10;;;;;;;8.11;100.00;97262.09;4944324;28;20185;-86
2023/09/25 04:56:25;;;;;;;0.10;0.10;;;;;;;8.14;100.00;97260.84;4942679;28;20043;-86
2023/09/25 04:59:11;;;;;;;0.10;0.10;;;;;;;8.07;100.00;97264.34;4941970;28;20118;-86
2023/09/25 05:01:56;;;;;;;0.10;0.10;;;;;;;8.07;100.00;97261.69;4939123;28;20070;-86
2023/09/25 05:04:42;;;;;;;0.10;0.10;;;;;;;8.02;100.00;97266.03;4944119;28;20582;-86
2023/09/25 05:07:28;;;;;;;0.10;0.10;;;;;;;7.98;100.00;97264.81;4941801;28;20070;-85
2023/09/25 05:10:16;;;;;;;0.10;0.10;;;;;;;7.96;100.00;97270.38;4941865;28;20875;-86
2023/09/25 05:13:03;;;;;;;0.10;0.10;;;;;;;7.93;100.00;97268.09;4941567;28;20106;-85
2023/09/25 05:15:49;;;;;;;0.10;0.10;;;;;;;7.94;100.00;97264.44;4939067;28;20044;-85
2023/09/25 05:18:35;;;;;;;0.10;0.10;;;;;;;7.89;100.00;97264.25;4938731;28;20130;-84
2023/09/25 05:21:21;;;;;;;0.10;0.10;;;;;;;7.98;100.00;97278.16;4937362;28;20032;-84
2023/09/25 05:24:07;;;;;;;0.10;0.10;;;;;;;7.89;100.00;97277.56;4938214;28;20497;-84
2023/09/25 05:26:53;;;;;;;0.10;0.10;;;;;;;7.89;100.00;97280.22;4939741;28;20749;-85
2023/09/25 05:29:38;;;;;;;0.10;0.10;;;;;;;7.86;100.00;97277.16;4939810;28;20352;-84
2023/09/25 05:32:24;;;;;;;0.10;0.10;;;;;;;7.86;100.00;97272.69;4938782;28;20046;-84
2023/09/25 05:35:10;;;;;;;0.10;0.10;;;;;;;7.89;100.00;97280.22;4925387;28;20344;-85
2023/09/25 05:37:56;;;;;;;0.10;0.10;;;;;;;7.82;100.00;97279.44;4936886;28;20039;-85
2023/09/25 05:40:42;;;;;;;0.10;0.10;;;;;;;7.90;100.00;97286.38;4921478;29;20082;-84
2023/09/25 05:43:28;;;;;;;0.10;0.10;;;;;;;7.85;100.00;97281.69;4937981;28;20146;-84
2023/09/25 05:46:14;;;;;;;0.10;0.10;;;;;;;7.86;100.00;97274.50;4936955;28;20050;-84
2023/09/25 05:48:59;;;;;;;0.10;0.10;;;;;;;7.88;100.00;97269.78;4937393;28;20105;-85
2023/09/25 05:51:45;;;;;;;0.10;0.10;;;;;;;7.79;100.00;97263.88;4939715;28;20106;-85
2023/09/25 05:54:31;;;;;;;0.10;0.10;;;;;;;7.88;100.00;97270.63;4939131;28;20039;-85
2023/09/25 05:57:18;;;;;;;0.10;0.10;;;;;;;7.97;100.00;97268.53;4937765;28;20086;-84
2023/09/25 06:00:12;;;;;;;0.10;0.10;;;;;;;8.06;100.00;97268.06;4925374;28;20338;-84
2023/09/25 06:02:58;;;;;;;0.10;0.10;;;;;;;8.20;100.00;97266.16;4922714;28;20047;-84
2023/09/25 06:05:43;;;;;;;0.10;0.10;;;;;;;8.26;100.00;97262.63;4939071;28;20066;-84
2023/09/25 06:08:29;;;;;;;0.10;0.10;;;;;;;8.34;100.00;97282.91;4938855;28;20042;-87
2023/09/25 06:11:17;;;;;;;0.10;0.10;;;;;;;8.33;100.00;97282.09;4935240;28;20118;-85
2023/09/25 06:14:04;;;;;;;0.10;0.10;;;;;;;8.33;100.00;97289.25;4936900;28;20102;-84
2023/09/25 06:16:51;;;;;;;0.10;0.10;;;;;;;8.42;100.00;97282.69;4938682;28;20087;-84
2023/09/25 06:19:37;;;;;;;0.10;0.10;;;;;;;8.49;100.00;97278.13;4937746;28;20051;-85
2023/09/25 06:22:23;;;;;;;0.10;0.10;;;;;;;8.58;100.00;97289.34;4925562;28;20043;-84
2023/09/25 06:25:11;;;;;;;0.10;0.10;;;;;;;8.61;100.00;97281.72;4937574;28;20043;-86
2023/09/25 06:27:57;;;;;;;0.10;0.10;;;;;;;8.69;100.00;97283.31;4936413;28;20395;-83
2023/09/25 06:30:43;;;;;;;0.10;0.10;;;;;;;8.74;100.00;97290.66;4935125;28;20158;-83
2023/09/25 06:33:29;;;;;;;0.10;0.10;;;;;;;8.78;100.00;97284.66;4937449;28;20094;-85
2023/09/25 06:36:14;;;;;;;0.10;0.10;;;;;;;8.79;100.00;97288.16;4936909;28;20051;-89
2023/09/25 06:39:01;;;;;;;0.10;0.10;;;;;;;8.88;100.00;97287.69;4935350;28;20043;-84
2023/09/25 06:41:50;;;;;;;0.10;0.10;;;;;;;8.99;100.00;97298.69;4938769;28;20106;-84
2023/09/25 06:44:38;;;;;;;;;;;;;;;9.07;100.00;97287.72;4938085;28;20043;-85
2023/09/25 06:47:24;;;;;;;0.10;0.10;;;;;;;9.12;100.00;97283.38;4937260;28;19945;-84
2023/09/25 06:50:13;;;;;;;0.10;0.10;;;;;;;9.24;100.00;97285.31;4934974;28;20031;-85
2023/09/25 06:52:59;;;;;;;0.10;0.10;;;;;;;9.27;100.00;97292.91;4938431;28;20051;-85
2023/09/25 06:55:46;;;;;;;0.10;0.10;;;;;;;9.34;100.00;97283.81;4939444;28;20065;-84
2023/09/25 06:58:32;;;;;;;0.10;0.10;;;;;;;9.41;100.00;97289.06;4937958;28;20039;-85
2023/09/25 07:01:18;;;;;;;0.10;0.10;;;;;;;9.50;100.00;97293.09;4936607;28;20047;-83
2023/09/25 07:04:04;;;;;;;0.10;0.10;;;;;;;9.54;100.00;97294.28;4937175;28;20062;-85
2023/09/25 07:06:50;;;;;;;0.10;0.10;;;;;;;9.62;100.00;97301.19;4940700;28;20039;-85
2023/09/25 07:09:36;;;;;;;0.10;0.10;;;;;;;9.71;100.00;97302.50;4938865;28;20062;-84
2023/09/25 07:12:22;;;;;;;0.10;0.10;;;;;;;9.82;100.00;97309.81;4922191;28;20043;-86
2023/09/25 07:15:08;;;;;;;0.10;0.10;;;;;;;9.92;100.00;97317.31;4937047;28;20039;-84
2023/09/25 07:17:54;;;;;;;0.10;0.10;;;;;;;9.99;100.00;97313.50;4935482;28;20129;-85
2023/09/25 07:20:40;;;;;;;0.10;0.10;;;;;;;10.03;100.00;97311.19;4937580;28;20043;-85
2023/09/25 07:23:27;;;;;;;0.10;0.10;;;;;;;10.08;100.00;97308.69;4937383;28;20142;-85
2023/09/25 07:26:15;;;;;;;0.10;0.10;;;;;;;10.17;100.00;97315.34;4937217;28;20114;-84
2023/09/25 07:29:01;;;;;;;0.10;0.10;;;;;;;10.23;100.00;97306.47;4938249;28;20043;-86
2023/09/25 07:31:47;;;;;;;0.10;0.10;;;;;;;10.40;100.00;97311.19;4937332;28;20058;-86
2023/09/25 07:34:33;;;;;;;0.10;0.10;;;;;;;10.51;100.00;97310.44;4936648;28;20042;-84
2023/09/25 07:37:19;;;;;;;0.10;0.10;;;;;;;10.60;100.00;97311.75;4937525;28;20043;-87
2023/09/25 07:40:11;;;;;;;0.10;0.10;;;;;;;10.68;100.00;97314.09;4933511;28;20126;-84
2023/09/25 07:42:57;;;;;;;0.10;0.10;;;;;;;10.75;100.00;97309.47;4935334;28;20628;-83
2023/09/25 07:45:43;;;;;;;0.10;0.10;;;;;;;10.93;100.00;97327.31;4935513;28;20142;-83
2023/09/25 07:48:30;;;;;;;0.10;0.10;;;;;;;11.03;100.00;97316.03;4935366;28;20046;-83
2023/09/25 07:51:17;;;;;;;0.10;0.10;;;;;;;11.20;100.00;97322.34;4923085;28;21172;-83
2023/09/25 07:54:03;;;;;;;0.10;0.10;;;;;;;11.36;100.00;97327.03;4935428;28;20047;-84
2023/09/25 07:56:50;;;;;;;0.10;0.10;;;;;;;11.53;100.00;97326.34;4903408;28;20105;-85
2023/09/25 07:59:36;;;;;;;0.10;0.10;;;;;;;11.69;100.00;97326.44;4935347;28;20518;-83
2023/09/25 08:02:22;;;;;;;0.10;0.10;;;;;;;11.81;100.00;97325.63;4935912;28;20130;-84
2023/09/25 08:05:08;;;;;;;0.10;0.10;;;;;;;12.02;100.00;97329.56;4934033;28;20051;-83
2023/09/25 08:07:54;;;;;;;0.10;0.10;;;;;;;12.14;100.00;97319.63;4936638;28;20541;-83
2023/09/25 08:10:44;;;;;;;0.10;0.10;;;;;;;12.24;100.00;97315.28;4935667;28;20043;-85
2023/09/25 08:13:30;;;;;;;0.10;0.10;;;;;;;12.37;100.00;97319.56;4935565;28;20562;-84
2023/09/25 08:16:18;;;;;;;0.10;0.10;;;;;;;12.38;100.00;97312.34;4937144;28;20455;-86
2023/09/25 08:19:04;;;;;;;0.10;0.10;;;;;;;12.49;100.00;97306.91;4935322;28;20043;-83
2023/09/25 08:21:51;;;;;;;0.10;0.10;;;;;;;12.60;100.00;97312.47;4935532;28;20051;-84
2023/09/25 08:24:37;;;;;;;0.10;0.10;;;;;;;12.70;100.00;97309.97;4934770;28;20042;-85
2023/09/25 08:27:23;;;;;;;0.10;0.10;;;;;;;12.78;100.00;97309.59;4934944;28;20098;-85
2023/09/25 08:30:09;;;;;;;0.10;0.10;;;;;;;12.92;100.00;97318.13;4934867;28;20046;-84
2023/09/25 08:32:56;;;;;;;0.00;0.00;;;;;;;12.98;100.00;97318.00;4934941;28;20102;-84
2023/09/25 08:35:43;;;;;;;0.10;0.10;;;;;;;13.11;100.00;97301.56;4935185;28;20050;-85
2023/09/25 08:38:29;;;;;;;0.10;0.10;;;;;;;13.28;100.00;97312.34;4935783;28;20413;-86
2023/09/25 08:41:17;;;;;;;0.10;0.10;;;;;;;13.41;100.00;97318.44;4933174;28;20078;-86
2023/09/25 08:44:03;;;;;;;0.10;0.10;;;;;;;13.59;100.00;97323.56;4934085;28;20697;-84
2023/09/25 08:46:49;;;;;;;0.10;0.10;;;;;;;13.75;100.00;97321.91;4936717;28;20777;-86
2023/09/25 08:49:36;;;;;;;0.10;0.10;;;;;;;13.87;100.00;97320.75;4937986;28;20039;-85
2023/09/25 08:52:23;;;;;;;0.10;0.10;;;;;;;13.96;100.00;97310.38;4938388;28;20039;-87
2023/09/25 08:55:09;;;;;;;0.10;0.10;;;;;;;14.07;100.00;97314.81;4936575;28;20055;-86
2023/09/25 08:57:55;;;;;;;0.10;0.10;;;;;;;14.14;100.00;97310.06;4935141;28;20043;-85
2023/09/25 09:00:41;;;;;;;0.10;0.10;;;;;;;14.18;100.00;97311.19;4935953;28;20055;-84
2023/09/25 09:03:27;;;;;;;0.10;0.10;;;;;;;14.22;100.00;97300.72;4939351;28;20043;-84
2023/09/25 09:06:13;;;;;;;0.10;0.10;;;;;;;14.15;100.00;97303.59;4919456;29;20035;-86
2023/09/25 09:08:59;;;;;;;0.00;0.00;;;;;;;14.12;100.00;97297.91;4919394;29;20098;-85
2023/09/25 09:11:52;;;;;;;0.10;0.10;;;;;;;14.11;100.00;97305.19;4916970;29;20086;-84
2023/09/25 09:14:43;;;;;;;0.10;0.10;;;;;;;14.25;100.00;97311.00;4918661;29;20455;-84
2023/09/25 09:17:29;;;;;;;0.10;0.10;;;;;;;14.31;100.00;97314.56;4918041;29;20048;-85
2023/09/25 09:20:15;;;;;;;0.10;0.10;;;;;;;14.39;100.00;97306.03;4918088;29;20047;-85
2023/09/25 09:23:01;;;;;;;0.10;0.10;;;;;;;14.53;100.00;97306.50;4917387;29;20051;-85
2023/09/25 09:25:49;;;;;;;0.10;0.10;;;;;;;14.67;100.00;97302.34;4920673;28;20078;-84
2023/09/25 09:28:35;;;;;;;0.10;0.10;;;;;;;14.83;100.00;97295.22;4918899;29;20582;-85
2023/09/25 09:31:21;;;;;;;0.10;0.10;;;;;;;14.54;100.00;97291.94;4930999;28;20043;-86
2023/09/25 09:34:07;;;;;;;0.10;0.10;;;;;;;14.89;100.00;97299.59;4919530;29;20135;-86
2023/09/25 09:36:52;;;;;;;0.10;0.10;;;;;;;14.76;100.00;97296.22;4920092;29;20040;-85
2023/09/25 09:39:45;;;;;;;0.10;0.10;;;;;;;14.87;100.00;97290.97;4919693;29;20383;-85
2023/09/25 09:42:34;;;;;;;0.10;0.10;;;;;;;14.97;100.00;97299.13;4918439;29;20071;-85
2023/09/25 09:45:21;;;;;;;0.10;0.10;;;;;;;15.21;100.00;97303.09;4917201;29;20036;-86
2023/09/25 09:48:10;;;;;;;0.10;0.10;;;;;;;15.17;100.00;97307.38;4915072;29;20044;-85
2023/09/25 09:51:00;;;;;;;0.10;0.10;;;;;;;15.17;100.00;97296.59;4917853;29;20048;-84
2023/09/25 09:53:47;;;;;;;0.10;0.10;;;;;;;15.30;100.00;97287.25;4919122;29;20455;-85
2023/09/25 09:56:35;;;;;;;0.10;0.10;;;;;;;15.57;100.00;97290.69;4917323;29;20530;-85
2023/09/25 09:59:21;;;;;;;0.10;0.10;;;;;;;15.98;100.00;97287.44;4914128;29;20040;-86
2023/09/25 10:02:08;;;;;;;0.10;0.10;;;;;;;16.11;100.00;97281.56;4914274;29;20158;-85
2023/09/25 10:04:53;;;;;;;0.10;0.10;;;;;;;16.13;100.00;97272.13;4927665;28;20086;-85
2023/09/25 10:08:05;;;;;;;0.13;0.13;;;;;;;16.84;100.00;97268.00;4936016;28;20050;-85
2023/09/25 10:10:53;;;;;;;;;;;;;;;17.23;99.62;97279.91;4936990;28;20616;-85
2023/09/25 10:13:39;;;;;;;0.10;0.10;;;;;;;18.77;90.43;97272.16;4937624;28;19922;-86
2023/09/25 10:16:28;;;;;;;0.20;0.20;;;;;;;19.26;81.40;97272.06;4936762;28;20044;-85
2023/09/25 10:19:20;;;;;;;0.20;0.20;;;;;;;20.83;73.86;97260.50;4935113;28;20043;-85
2023/09/25 10:22:11;;;;;;;0.20;0.20;;;;;;;21.64;61.25;97266.56;4937760;28;20629;-85
2023/09/25 10:25:04;;;;;;;0.20;0.20;;;;;;;22.65;51.88;97260.19;4936185;28;20047;-85
2023/09/25 10:27:52;;;;;;;0.20;0.20;;;;;;;22.95;51.96;97256.78;4937817;28;20486;-85
2023/09/25 10:30:38;;;;;;;0.20;0.20;;;;;;;23.39;51.99;97257.91;4938605;28;20071;-86
2023/09/25 10:33:30;;;;;;;0.20;0.20;;;;;;;23.43;46.93;97261.63;4933343;28;20391;-86
2023/09/25 10:36:16;;;;;;;0.20;0.20;;;;;;;24.34;45.28;97255.66;4924867;28;20236;-82
2023/09/25 10:39:05;;;;;;;0.10;0.10;;;;;;;24.70;41.99;97252.66;4933726;28;20058;-83
2023/09/25 10:42:11;;;;;;;0.20;0.20;;;;;;;24.94;40.42;97249.44;4934514;28;20154;-83
2023/09/25 10:44:57;;;;;;;0.10;0.10;;;;;;;25.65;39.00;97251.78;4923776;28;20061;-83
2023/09/25 10:47:43;;;;;;;0.20;0.20;;;;;;;26.17;40.52;97245.34;4935715;28;20109;-82
2023/09/25 10:50:28;;;;;;;0.10;0.10;;;;;;;27.00;40.12;97250.13;4936409;28;20055;-83
2023/09/25 10:53:15;;;;;;;0.17;0.17;;;;;;;25.66;37.83;97256.13;4935372;28;20057;-82
2023/09/25 10:56:01;;;;;;;0.20;0.20;;;;;;;27.19;37.99;97248.53;4935146;28;20058;-83
2023/09/25 10:58:47;;;;;;;0.10;0.10;;;;;;;30.00;32.97;97236.38;4934534;28;20105;-83
2023/09/25 11:01:35;;;;;;;0.10;0.10;;;;;;;28.87;31.90;97237.56;4931110;28;20050;-82
2023/09/25 11:04:20;;;;;;;0.15;0.15;;;;;;;26.10;37.10;97243.91;4934335;28;20043;-83
2023/09/25 11:07:06;;;;;;;0.10;0.10;;;;;;;26.62;38.22;97238.16;4934381;28;20739;-82
2023/09/25 11:09:53;;;;;;;0.10;0.10;;;;;;;24.77;39.44;97235.75;4934187;28;20074;-82
2023/09/25 11:12:40;;;;;;;0.10;0.10;;;;;;;26.25;37.96;97233.50;4936717;28;20062;-83
2023/09/25 11:15:27;;;;;;;0.10;0.10;;;;;;;25.33;39.20;97238.66;4935914;28;20487;-82
2023/09/25 11:18:13;;;;;;;0.20;0.10;;;;;;;25.72;38.91;97235.69;4935091;28;20106;-83
2023/09/25 11:20:59;;;;;;;0.10;0.10;;;;;;;26.42;36.92;97244.41;4934940;28;20048;-83
2023/09/25 11:23:45;;;;;;;0.10;0.10;;;;;;;25.93;39.22;97234.97;4924293;29;20438;-82
2023/09/25 11:26:35;;;;;;;0.10;0.10;;;;;;;28.61;35.73;97229.72;4935990;28;20043;-82
2023/09/25 11:29:33;;;;;;;0.10;0.10;;;;;;;27.72;34.62;97224.91;4933040;28;20465;-83
2023/09/25 11:32:20;;;;;;;0.10;0.10;;;;;;;28.87;33.85;97223.81;4934206;28;20047;-82
2023/09/25 11:35:12;;;;;;;0.10;0.10;;;;;;;29.23;33.00;97222.91;4934876;28;20050;-82
2023/09/25 11:38:03;;;;;;;0.10;0.10;;;;;;;29.47;31.96;97224.75;4937245;28;20391;-83
2023/09/25 11:40:52;;;;;;;0.08;0.08;;;;;;;28.40;33.26;97227.13;4934039;28;20071;-83
2023/09/25 11:43:38;;;;;;;0.10;0.10;;;;;;;29.78;33.90;97218.50;4920975;28;20043;-83
2023/09/25 11:46:24;;;;;;;0.10;0.10;;;;;;;28.81;32.21;97223.28;4936188;28;20348;-82
2023/09/25 11:49:12;;;;;;;0.10;0.10;;;;;;;27.60;34.78;97221.28;4934049;28;20094;-82
2023/09/25 11:51:58;;;;;;;0.20;0.20;;;;;;;29.79;31.91;97203.53;4934916;28;20142;-83
2023/09/25 11:54:43;;;;;;;0.10;0.10;;;;;;;28.09;34.31;97210.38;4935271;28;20166;-83
2023/09/25 11:57:30;;;;;;;0.10;0.10;;;;;;;28.00;33.93;97202.22;4932983;28;20157;-81
2023/09/25 12:00:18;;;;;;;0.10;0.10;;;;;;;28.33;33.42;97204.91;4935567;28;20055;-82
2023/09/25 12:03:07;;;;;;;0.05;0.05;;;;;;;28.57;33.02;97199.34;4933326;28;20669;-83
2023/09/25 12:05:53;;;;;;;0.10;0.10;;;;;;;28.45;33.53;97182.84;4936832;28;20050;-83
2023/09/25 12:08:39;;;;;;;0.10;0.10;;;;;;;30.18;31.92;97179.69;4935584;28;20048;-83
2023/09/25 12:11:25;;;;;;;0.10;0.10;;;;;;;29.27;33.46;97187.19;4935657;28;20095;-84
2023/09/25 12:14:11;;;;;;;0.00;0.00;;;;;;;30.56;32.49;97180.94;4922421;28;20043;-84
2023/09/25 12:16:59;;;;;;;0.10;0.10;;;;;;;30.00;30.82;97183.97;4936506;28;20456;-84
2023/09/25 12:19:45;;;;;;;0.10;0.10;;;;;;;30.22;31.31;97190.81;4934103;28;20483;-84
2023/09/25 12:22:31;;;;;;;0.03;0.03;;;;;;;30.02;31.95;97200.16;4936688;28;20050;-84
2023/09/25 12:25:17;;;;;;;0.00;0.00;;;;;;;29.21;32.56;97205.13;4937673;28;20605;-85
2023/09/25 12:28:04;;;;;;;0.20;0.20;;;;;;;30.12;30.98;97207.94;4938252;28;20043;-84
2023/09/25 12:30:50;;;;;;;0.10;0.10;;;;;;;27.94;33.51;97211.88;4939652;28;20043;-84
2023/09/25 12:33:37;;;;;;;0.10;0.10;;;;;;;29.05;33.64;97210.59;4940373;28;20046;-84
2023/09/25 12:36:22;;;;;;;0.10;0.10;;;;;;;29.12;31.86;97214.34;4938533;28;20070;-85
2023/09/25 12:39:09;;;;;;;0.10;0.10;;;;;;;28.88;33.00;97214.41;4936932;28;20775;-85
2023/09/25 12:41:55;;;;;;;0.10;0.10;;;;;;;30.36;31.41;97201.41;4938031;28;20502;-84
2023/09/25 12:44:40;;;;;;;0.08;0.08;;;;;;;28.80;33.21;97207.09;4926058;28;20055;-84
2023/09/25 12:47:30;;;;;;;0.10;0.10;;;;;;;31.33;30.39;97200.31;4940433;28;20517;-84
2023/09/25 12:50:16;;;;;;;0.10;0.10;;;;;;;30.13;31.08;97199.28;4938977;28;20551;-84
2023/09/25 12:53:01;;;;;;;0.10;0.10;;;;;;;30.31;32.37;97198.91;4937917;28;20211;-84
2023/09/25 12:55:47;;;;;;;0.10;0.10;;;;;;;30.98;30.54;97183.84;4938695;28;20047;-83
2023/09/25 12:58:33;;;;;;;0.10;0.10;;;;;;;31.25;29.99;97183.97;4939472;28;20047;-84
2023/09/25 13:01:19;;;;;;;0.10;0.10;;;;;;;29.47;29.93;97201.88;4942117;28;20047;-83
2023/09/25 13:04:05;;;;;;;0.10;0.10;;;;;;;30.98;29.59;97188.56;4944287;28;20077;-83